Time;durP1;ratioP1;P1;durP2;ratioP2;P2;SDS_P1;SDS_P2;PMS_P1;PMS_P2;Temp;Humidity;BMP_temperature;BMP_pressure;BME280_temperature;BME280_humidity;BME280_pressure;Samples;Min_cycle;Max_cycle;Signal;HPM_P1;HPM_P2
2022/09/17 00:02:06;;;;;;;5.13;3.20;;;11.70;1.00;;;;;;6082237;23;20429;-83
2022/09/17 00:04:36;;;;;;;6.87;2.87;;;11.70;1.00;;;;;;6081123;23;20389;-82
2022/09/17 00:07:05;;;;;;;4.47;3.37;;;11.70;1.00;;;;;;6069915;23;20457;-82
2022/09/17 00:09:33;;;;;;;4.20;3.07;;;11.70;1.00;;;;;;6080483;23;20489;-84
2022/09/17 00:12:00;;;;;;;4.07;2.50;;;11.70;1.00;;;;;;6079857;23;20433;-83
2022/09/17 00:14:27;;;;;;;4.97;3.07;;;11.70;1.00;;;;;;6080622;23;20437;-83
2022/09/17 00:16:55;;;;;;;5.43;3.20;;;11.80;1.00;;;;;;6083368;23;21265;-82
2022/09/17 00:19:24;;;;;;;4.53;3.30;;;11.80;1.00;;;;;;6082313;23;20433;-82
2022/09/17 00:22:03;;;;;;;5.30;2.80;;;11.80;1.00;;;;;;6081965;23;20397;-82
2022/09/17 00:24:34;;;;;;;6.17;3.17;;;11.80;1.00;;;;;;6078173;23;20373;-83
2022/09/17 00:27:15;;;;;;;16.80;10.83;;;11.80;1.00;;;;;;6082150;23;20396;-83
2022/09/17 00:29:48;;;;;;;5.97;2.93;;;11.80;1.00;;;;;;6079608;23;20385;-83
2022/09/17 00:32:18;;;;;;;4.47;3.17;;;11.80;1.00;;;;;;6082048;23;20611;-83
2022/09/17 00:34:48;;;;;;;4.50;2.63;;;11.80;1.00;;;;;;6081853;23;20409;-82
2022/09/17 00:37:25;;;;;;;8.53;3.27;;;11.90;1.00;;;;;;6083798;23;20407;-83
2022/09/17 00:39:56;;;;;;;4.47;3.10;;;11.90;1.00;;;;;;6083388;23;20913;-83
2022/09/17 00:42:25;;;;;;;7.63;3.27;;;11.90;1.00;;;;;;6083298;23;20503;-83
2022/09/17 00:44:58;;;;;;;8.37;3.77;;;11.90;1.00;;;;;;6080595;23;20456;-81
2022/09/17 00:47:46;;;;;;;11.67;4.10;;;11.90;1.00;;;;;;6080157;23;20449;-81
2022/09/17 00:50:26;;;;;;;6.40;3.17;;;11.90;1.00;;;;;;6081999;23;20472;-82
2022/09/17 00:53:06;;;;;;;8.33;3.63;;;11.90;1.00;;;;;;6080233;23;20414;-82
2022/09/17 00:55:40;;;;;;;5.33;3.30;;;11.90;1.00;;;;;;6080125;23;20393;-82
2022/09/17 00:58:21;;;;;;;8.77;3.20;;;11.90;1.00;;;;;;6081600;23;20492;-82
2022/09/17 01:00:48;;;;;;;5.77;3.50;;;11.90;1.00;;;;;;6080118;23;20418;-81
2022/09/17 01:03:25;;;;;;;6.13;3.63;;;11.90;1.00;;;;;;6069345;23;20422;-81
2022/09/17 01:06:06;;;;;;;8.33;3.33;;;11.90;1.00;;;;;;6081620;23;20397;-82
2022/09/17 01:08:57;;;;;;;5.13;3.03;;;11.90;1.00;;;;;;6083514;23;20417;-81
2022/09/17 01:11:48;;;;;;;6.43;3.27;;;11.90;1.00;;;;;;6081507;23;20583;-82
2022/09/17 01:14:35;;;;;;;6.50;3.53;;;12.00;1.00;;;;;;6079313;23;20522;-81
2022/09/17 01:20:36;;;;;;;7.67;3.60;;;12.00;1.00;;;;;;6062393;23;20425;-82
2022/09/17 01:26:36;;;;;;;6.03;3.20;;;12.00;1.00;;;;;;6081581;23;20516;-83
2022/09/17 01:29:25;;;;;;;6.17;3.20;;;12.00;1.00;;;;;;6084593;23;20455;-83
2022/09/17 01:32:04;;;;;;;8.27;3.70;;;12.00;1.00;;;;;;6083045;23;20436;-83
2022/09/17 01:34:46;;;;;;;6.13;3.23;;;12.00;1.00;;;;;;6082410;23;20449;-82
2022/09/17 01:37:24;;;;;;;10.63;3.53;;;12.00;1.00;;;;;;6084826;23;20429;-83
2022/09/17 01:40:05;;;;;;;6.93;3.20;;;12.00;1.00;;;;;;6082312;23;20919;-82
2022/09/17 01:42:44;;;;;;;7.00;3.60;;;12.00;1.00;;;;;;6080963;23;20410;-83
2022/09/17 01:45:27;;;;;;;6.70;2.80;;;11.90;1.00;;;;;;6082014;23;20402;-83
2022/09/17 01:48:08;;;;;;;5.97;3.00;;;12.00;1.00;;;;;;6080232;23;20465;-83
2022/09/17 01:50:56;;;;;;;5.47;3.03;;;12.00;1.00;;;;;;6081809;23;20424;-82
2022/09/17 01:53:34;;;;;;;5.70;2.87;;;12.10;1.00;;;;;;6082664;23;20446;-82
2022/09/17 01:56:15;;;;;;;5.90;2.80;;;12.10;1.00;;;;;;6082291;23;20517;-81
2022/09/17 01:58:57;;;;;;;6.70;3.30;;;12.10;1.00;;;;;;6079934;23;20443;-81
2022/09/17 02:01:29;;;;;;;4.30;3.00;;;12.10;1.00;;;;;;6079706;23;20428;-82
2022/09/17 02:04:02;;;;;;;6.67;3.33;;;12.10;1.00;;;;;;6077495;23;20422;-82
2022/09/17 02:06:35;;;;;;;6.33;3.10;;;12.20;1.00;;;;;;6079471;23;20396;-82
2022/09/17 02:09:07;;;;;;;6.13;3.40;;;12.20;1.00;;;;;;6080411;23;20488;-83
2022/09/17 02:11:38;;;;;;;4.60;3.50;;;12.20;1.00;;;;;;6079127;23;20453;-84
2022/09/17 02:14:10;;;;;;;5.30;2.93;;;12.20;1.00;;;;;;6078661;23;21124;-83
2022/09/17 02:16:43;;;;;;;4.53;2.80;;;12.20;1.00;;;;;;6080698;23;20414;-83
2022/09/17 02:19:17;;;;;;;7.80;3.97;;;12.20;1.00;;;;;;6081179;23;20445;-83
2022/09/17 02:21:47;;;;;;;6.80;3.43;;;12.30;1.00;;;;;;6078081;23;20929;-82
2022/09/17 02:24:19;;;;;;;11.20;3.87;;;12.30;1.00;;;;;;6081085;23;20442;-83
2022/09/17 02:26:54;;;;;;;8.87;3.63;;;12.30;1.00;;;;;;6081652;23;20382;-82
2022/09/17 02:29:29;;;;;;;6.40;3.20;;;12.30;1.00;;;;;;6082136;23;20433;-82
2022/09/17 02:31:56;;;;;;;8.43;3.53;;;12.40;1.00;;;;;;6081526;23;20416;-82
2022/09/17 02:34:27;;;;;;;5.67;2.73;;;12.40;1.00;;;;;;6078921;23;20412;-83
2022/09/17 02:36:54;;;;;;;7.70;2.80;;;12.40;1.00;;;;;;6080340;23;20513;-82
2022/09/17 02:39:21;;;;;;;5.83;2.93;;;12.40;1.00;;;;;;6081851;23;20453;-83
2022/09/17 02:41:56;;;;;;;7.40;4.03;;;12.40;1.00;;;;;;6080851;23;20484;-83
2022/09/17 02:44:32;;;;;;;4.70;3.37;;;12.40;1.00;;;;;;6082585;23;20977;-83
2022/09/17 02:47:24;;;;;;;5.00;3.30;;;12.40;1.00;;;;;;6078516;23;21163;-82
2022/09/17 02:50:26;;;;;;;6.30;3.63;;;12.50;1.00;;;;;;6079888;23;20454;-82
2022/09/17 02:53:08;;;;;;;7.70;3.77;;;12.50;1.00;;;;;;6076644;23;20415;-81
2022/09/17 02:55:41;;;;;;;7.67;3.90;;;12.50;1.00;;;;;;6082106;23;21269;-83
2022/09/17 02:58:20;;;;;;;6.80;4.20;;;12.60;1.00;;;;;;6070320;23;20451;-83
2022/09/17 03:00:48;;;;;;;8.50;3.80;;;12.60;1.00;;;;;;6080552;23;20401;-83
2022/09/17 03:03:20;;;;;;;7.07;3.43;;;12.60;1.00;;;;;;6082561;23;20453;-83
2022/09/17 03:05:48;;;;;;;7.27;4.10;;;12.60;1.00;;;;;;6077317;23;20922;-83
2022/09/17 03:08:19;;;;;;;10.00;4.47;;;12.60;1.00;;;;;;6065028;23;20891;-81
2022/09/17 03:10:48;;;;;;;6.90;3.60;;;12.60;1.00;;;;;;6051679;23;20649;-83
2022/09/17 03:13:15;;;;;;;5.80;3.17;;;12.50;1.00;;;;;;6079261;23;20484;-82
2022/09/17 03:15:43;;;;;;;6.13;4.60;;;12.60;1.00;;;;;;6066653;23;20438;-82
2022/09/17 03:18:12;;;;;;;7.43;3.60;;;12.50;1.00;;;;;;6081282;23;20440;-82
2022/09/17 03:20:38;;;;;;;8.47;4.03;;;12.50;1.00;;;;;;6053278;23;20770;-82
2022/09/17 03:23:05;;;;;;;8.60;3.73;;;12.60;1.00;;;;;;6079686;23;20445;-82
2022/09/17 03:25:36;;;;;;;7.73;4.03;;;12.60;1.00;;;;;;6078022;23;20835;-82
2022/09/17 03:28:08;;;;;;;8.63;4.13;;;12.60;1.00;;;;;;6078772;23;20429;-82
2022/09/17 03:30:37;;;;;;;4.67;3.37;;;12.60;1.00;;;;;;6054966;23;20401;-83
2022/09/17 03:33:04;;;;;;;12.20;4.37;;;12.60;1.00;;;;;;6081786;23;20449;-82
2022/09/17 03:35:31;;;;;;;10.60;4.37;;;12.60;1.00;;;;;;6081364;23;20632;-81
2022/09/17 03:37:58;;;;;;;6.17;3.60;;;12.60;1.00;;;;;;6081318;23;20408;-81
2022/09/17 03:40:25;;;;;;;9.20;3.97;;;12.60;1.00;;;;;;6081516;23;20457;-82
2022/09/17 03:42:58;;;;;;;12.63;10.00;;;12.50;1.00;;;;;;6080425;23;20397;-81
2022/09/17 03:45:25;;;;;;;8.70;3.73;;;12.50;1.00;;;;;;6067062;23;20398;-82
2022/09/17 03:47:55;;;;;;;7.73;4.10;;;12.50;1.00;;;;;;6080124;23;20818;-82
2022/09/17 03:50:25;;;;;;;6.93;3.90;;;12.50;1.00;;;;;;6056273;23;20441;-82
2022/09/17 03:52:57;;;;;;;5.80;4.27;;;12.50;1.00;;;;;;6081415;23;20477;-81
2022/09/17 03:55:25;;;;;;;8.33;3.60;;;12.50;1.00;;;;;;6062871;23;20405;-81
2022/09/17 03:58:01;;;;;;;11.07;3.80;;;12.50;1.00;;;;;;6066475;23;20429;-82
2022/09/17 04:00:28;;;;;;;8.80;3.90;;;12.50;1.00;;;;;;6053681;23;20412;-81
2022/09/17 04:02:57;;;;;;;6.13;3.60;;;12.50;1.00;;;;;;6065201;23;21249;-82
2022/09/17 04:05:26;;;;;;;4.97;3.53;;;12.50;1.00;;;;;;6058704;23;20413;-82
2022/09/17 04:07:58;;;;;;;11.40;4.03;;;12.50;1.00;;;;;;6069164;23;20449;-82
2022/09/17 04:10:28;;;;;;;6.13;3.37;;;12.50;1.00;;;;;;6072272;23;20449;-82
2022/09/17 04:12:59;;;;;;;5.27;3.50;;;12.50;1.00;;;;;;6079702;23;20425;-80
2022/09/17 04:15:28;;;;;;;8.63;3.30;;;12.50;1.00;;;;;;6081378;23;20441;-81
2022/09/17 04:17:59;;;;;;;5.00;3.53;;;12.40;1.00;;;;;;6066031;23;20409;-81
2022/09/17 04:20:27;;;;;;;6.00;2.90;;;12.40;1.00;;;;;;6066047;23;20516;-82
2022/09/17 04:22:57;;;;;;;9.10;3.53;;;12.50;1.00;;;;;;6080151;23;20416;-81
2022/09/17 04:25:41;;;;;;;7.63;3.87;;;12.50;1.00;;;;;;6069355;23;21021;-81
2022/09/17 04:28:20;;;;;;;;;;;;;;;;;;;;;
2022/09/17 04:30:48;;;;;;;8.20;3.40;;;12.50;1.00;;;;;;6065172;23;40487;-81
2022/09/17 04:33:18;;;;;;;8.90;3.60;;;12.50;1.00;;;;;;6055937;23;20489;-81
2022/09/17 04:35:58;;;;;;;6.93;3.23;;;12.50;1.00;;;;;;6066026;23;20441;-81
2022/09/17 04:38:25;;;;;;;5.43;2.97;;;12.50;1.00;;;;;;6068337;23;20499;-81
2022/09/17 04:41:07;;;;;;;7.57;2.97;;;12.50;1.00;;;;;;6069708;23;20433;-81
2022/09/17 04:43:49;;;;;;;10.30;3.40;;;12.60;1.00;;;;;;6059123;23;20417;-81
2022/09/17 04:46:19;;;;;;;7.50;3.70;;;12.60;1.00;;;;;;6083678;23;20429;-81
2022/09/17 04:48:46;;;;;;;11.13;3.70;;;12.60;1.00;;;;;;6056695;23;20388;-81
2022/09/17 04:51:28;;;;;;;7.80;3.70;;;12.60;1.00;;;;;;6059143;23;20457;-81
2022/09/17 04:53:58;;;;;;;8.87;3.03;;;12.60;1.00;;;;;;6080467;23;20418;-80
2022/09/17 04:56:26;;;;;;;7.50;3.20;;;12.60;1.00;;;;;;6080803;23;20426;-81
2022/09/17 04:58:57;;;;;;;8.90;3.93;;;12.60;1.00;;;;;;6055822;23;20429;-81
2022/09/17 05:01:26;;;;;;;7.57;3.33;;;12.60;1.00;;;;;;6069404;23;20929;-82
2022/09/17 05:03:59;;;;;;;8.87;3.40;;;12.70;1.00;;;;;;6066260;23;20461;-82
2022/09/17 05:06:28;;;;;;;8.50;3.03;;;12.70;1.00;;;;;;6078252;23;20408;-81
2022/09/17 05:08:57;;;;;;;10.00;3.83;;;12.70;1.00;;;;;;6052370;23;20590;-81
2022/09/17 05:11:38;;;;;;;11.60;3.77;;;12.70;1.00;;;;;;6079523;23;20436;-83
2022/09/17 05:14:16;;;;;;;7.87;2.93;;;12.70;1.00;;;;;;6067302;23;20440;-84
2022/09/17 05:16:47;;;;;;;8.80;3.30;;;12.80;1.00;;;;;;6056225;23;20455;-81
2022/09/17 05:19:17;;;;;;;5.30;3.13;;;12.80;1.00;;;;;;6073086;23;20431;-83
2022/09/17 05:21:59;;;;;;;5.80;3.30;;;13.00;1.00;;;;;;6043485;23;20516;-83
2022/09/17 05:24:27;;;;;;;10.47;3.50;;;13.00;1.00;;;;;;6068580;23;20428;-82
2022/09/17 05:26:57;;;;;;;9.77;3.80;;;12.90;1.00;;;;;;6067534;23;20404;-82
2022/09/17 05:29:27;;;;;;;5.90;2.80;;;13.00;1.00;;;;;;6070108;23;20390;-83
2022/09/17 05:31:59;;;;;;;9.80;4.37;;;13.00;1.00;;;;;;6059273;23;20426;-81
2022/09/17 05:34:28;;;;;;;8.60;2.73;;;13.10;1.00;;;;;;6069971;23;20461;-82
2022/09/17 05:36:58;;;;;;;4.60;2.87;;;13.10;1.00;;;;;;6070554;23;20929;-81
2022/09/17 05:39:28;;;;;;;7.50;3.47;;;13.20;1.00;;;;;;6053798;23;20430;-82
2022/09/17 05:41:57;;;;;;;6.67;3.70;;;13.20;1.00;;;;;;6056082;23;20553;-82
2022/09/17 05:44:26;;;;;;;6.70;3.20;;;13.20;1.00;;;;;;6067731;23;20397;-82
2022/09/17 05:46:57;;;;;;;7.17;2.93;;;13.30;1.00;;;;;;6055960;23;20421;-83
2022/09/17 05:49:26;;;;;;;5.50;3.20;;;13.30;1.00;;;;;;6068224;23;20390;-82
2022/09/17 05:51:56;;;;;;;6.83;3.07;;;13.40;1.00;;;;;;6079409;23;20429;-82
2022/09/17 05:54:28;;;;;;;7.87;3.37;;;13.40;1.00;;;;;;6080292;23;21046;-83
2022/09/17 05:56:58;;;;;;;6.77;3.00;;;13.40;1.00;;;;;;6068685;23;20430;-82
2022/09/17 05:59:28;;;;;;;5.57;3.50;;;13.50;1.00;;;;;;6082335;23;20485;-81
2022/09/17 06:01:58;;;;;;;8.30;3.13;;;13.50;1.00;;;;;;6080739;23;20607;-81
2022/09/17 06:04:25;;;;;;;8.90;3.53;;;13.60;1.00;;;;;;6079686;23;20412;-83
2022/09/17 06:06:57;;;;;;;6.70;4.20;;;13.60;1.00;;;;;;6066931;23;20454;-82
2022/09/17 06:09:27;;;;;;;10.53;3.67;;;13.60;1.00;;;;;;6078925;23;20441;-81
2022/09/17 06:11:56;;;;;;;9.43;3.70;;;13.60;1.00;;;;;;6079739;23;20945;-80
2022/09/17 06:14:22;;;;;;;11.17;3.77;;;13.60;1.00;;;;;;6081579;23;20449;-80
2022/09/17 06:16:52;;;;;;;9.80;3.53;;;13.60;1.00;;;;;;6081734;23;20473;-80
2022/09/17 06:19:18;;;;;;;7.50;2.80;;;13.60;1.00;;;;;;6076532;23;20522;-81
2022/09/17 06:21:49;;;;;;;7.30;4.07;;;13.60;1.00;;;;;;6075596;23;20405;-80
2022/09/17 06:24:16;;;;;;;11.90;4.23;;;13.60;1.00;;;;;;6065995;23;20428;-80
2022/09/17 06:26:43;;;;;;;8.33;3.57;;;13.60;1.00;;;;;;6074547;23;20428;-82
2022/09/17 06:29:16;;;;;;;9.77;3.50;;;13.60;1.00;;;;;;6069145;23;20441;-79
2022/09/17 06:31:44;;;;;;;9.67;5.00;;;13.70;1.00;;;;;;6062193;23;20868;-80
2022/09/17 06:34:19;;;;;;;11.23;4.37;;;13.60;1.00;;;;;;6064930;23;20449;-79
2022/09/17 06:36:48;;;;;;;7.33;4.13;;;13.60;1.00;;;;;;6064632;23;20484;-82
2022/09/17 06:39:15;;;;;;;10.20;5.50;;;13.70;1.00;;;;;;6075635;23;21165;-81
2022/09/17 06:41:42;;;;;;;12.57;4.30;;;13.70;1.00;;;;;;6076423;23;20412;-81
2022/09/17 06:44:09;;;;;;;7.20;4.23;;;13.70;1.00;;;;;;6078789;23;20758;-81
2022/09/17 06:46:37;;;;;;;13.90;4.97;;;13.80;1.00;;;;;;6061657;23;20406;-81
2022/09/17 06:49:05;;;;;;;10.93;5.10;;;13.80;1.00;;;;;;6073653;23;21045;-81
2022/09/17 06:51:36;;;;;;;11.83;4.80;;;13.70;1.00;;;;;;6072569;23;20438;-81
2022/09/17 06:54:03;;;;;;;11.17;4.47;;;13.80;1.00;;;;;;6047689;23;20417;-81
2022/09/17 06:56:33;;;;;;;12.17;5.23;;;13.90;1.00;;;;;;6046907;23;20429;-82
2022/09/17 06:59:00;;;;;;;11.00;4.30;;;14.00;1.00;;;;;;6073758;23;20552;-81
2022/09/17 07:01:28;;;;;;;11.30;4.70;;;14.10;1.00;;;;;;6072654;23;20651;-81
2022/09/17 07:03:55;;;;;;;10.67;4.50;;;14.10;1.00;;;;;;6076402;23;20538;-82
2022/09/17 07:06:21;;;;;;;10.73;4.30;;;14.10;1.00;;;;;;6078664;23;20452;-81
2022/09/17 07:08:49;;;;;;;10.37;4.67;;;14.00;1.00;;;;;;6048392;23;21144;-81
2022/09/17 07:11:16;;;;;;;17.53;4.50;;;14.00;1.00;;;;;;6074893;23;20445;-81
2022/09/17 07:13:43;;;;;;;11.60;4.43;;;13.90;1.00;;;;;;6074744;23;20393;-80
2022/09/17 07:16:10;;;;;;;7.43;4.20;;;13.90;1.00;;;;;;6075083;23;20424;-80
2022/09/17 07:18:38;;;;;;;11.43;4.63;;;14.00;1.00;;;;;;6073940;23;20422;-80
2022/09/17 07:21:09;;;;;;;10.47;4.50;;;14.00;1.00;;;;;;6078668;23;20441;-77
2022/09/17 07:23:39;;;;;;;14.13;5.00;;;14.00;1.00;;;;;;6074357;23;21224;-78
2022/09/17 07:26:22;;;;;;;10.60;4.83;;;13.90;1.00;;;;;;6078035;23;20436;-77
2022/09/17 07:28:48;;;;;;;9.00;4.30;;;14.00;1.00;;;;;;6058437;23;20424;-77
2022/09/17 07:31:18;;;;;;;15.50;4.57;;;14.00;1.00;;;;;;6079347;23;20444;-78
2022/09/17 07:33:56;;;;;;;10.80;4.87;;;14.10;1.00;;;;;;6067586;23;21246;-78
2022/09/17 07:36:28;;;;;;;14.47;4.27;;;14.20;1.00;;;;;;6047011;23;21332;-78
2022/09/17 07:38:59;;;;;;;10.50;4.63;;;14.20;1.00;;;;;;6083237;23;20429;-80
2022/09/17 07:41:29;;;;;;;8.33;3.43;;;14.30;1.00;;;;;;6085446;23;20436;-82
2022/09/17 07:44:08;;;;;;;8.43;3.90;;;14.30;1.00;;;;;;6084577;23;20381;-82
2022/09/17 07:46:40;;;;;;;10.67;4.33;;;14.40;1.00;;;;;;6076124;23;20436;-77
2022/09/17 07:49:07;;;;;;;13.93;4.00;;;14.40;1.00;;;;;;6080895;23;20406;-86
2022/09/17 07:51:33;;;;;;;14.53;4.37;;;14.50;1.00;;;;;;6078892;23;20421;-84
2022/09/17 07:54:05;;;;;;;8.67;4.13;;;14.70;1.00;;;;;;6066865;23;20417;-89
2022/09/17 07:56:36;;;;;;;8.77;4.20;;;14.80;1.00;;;;;;6057550;23;20440;-79
2022/09/17 07:59:09;;;;;;;8.90;4.43;;;14.70;1.00;;;;;;6080798;23;20428;-79
2022/09/17 08:01:37;;;;;;;9.27;3.43;;;14.70;1.00;;;;;;6083691;23;20414;-85
2022/09/17 08:04:07;;;;;;;10.80;4.20;;;14.80;1.00;;;;;;6067216;23;20403;-80
2022/09/17 08:06:53;;;;;;;11.50;3.87;;;14.70;1.00;;;;;;6050264;23;20413;-86
2022/09/17 08:09:21;;;;;;;9.10;3.27;;;14.70;1.00;;;;;;6021371;23;20414;-78
2022/09/17 08:11:49;;;;;;;8.50;4.20;;;14.70;1.00;;;;;;6065109;23;20508;-79
2022/09/17 08:14:19;;;;;;;9.70;3.73;;;14.70;1.00;;;;;;6080572;23;20396;-79
2022/09/17 08:16:49;;;;;;;8.73;3.67;;;14.90;1.00;;;;;;6042449;23;20469;-84
2022/09/17 08:19:17;;;;;;;11.03;3.50;;;15.00;1.00;;;;;;6084357;23;20453;-79
2022/09/17 08:21:47;;;;;;;10.60;4.47;;;15.00;1.00;;;;;;6072776;23;20393;-79
2022/09/17 08:24:28;;;;;;;6.43;3.10;;;15.00;1.00;;;;;;6070973;23;20394;-81
2022/09/17 08:26:58;;;;;;;10.63;3.50;;;15.00;1.00;;;;;;6081947;23;20456;-81
2022/09/17 08:29:28;;;;;;;14.70;3.23;;;15.10;1.00;;;;;;6056556;23;20437;-79
2022/09/17 08:31:57;;;;;;;10.37;3.80;;;15.30;1.00;;;;;;6067579;23;20463;-79
2022/09/17 08:34:27;;;;;;;8.87;3.37;;;15.50;1.00;;;;;;6081060;23;20409;-77
2022/09/17 08:36:54;;;;;;;11.97;3.50;;;15.50;1.00;;;;;;6065704;23;20425;-78
2022/09/17 08:39:25;;;;;;;8.80;3.90;;;15.60;1.00;;;;;;6080683;23;20575;-87
2022/09/17 08:42:08;;;;;;;10.30;3.63;;;15.60;1.00;;;;;;6047385;23;20420;-88
2022/09/17 08:44:48;;;;;;;9.63;3.13;;;15.60;1.00;;;;;;6055190;23;20419;-83
2022/09/17 08:47:32;;;;;;;10.37;4.10;;;15.70;1.00;;;;;;6084120;23;20393;-85
2022/09/17 08:50:19;;;;;;;8.77;3.10;;;15.90;1.00;;;;;;6027637;23;20386;-80
2022/09/17 08:53:17;;;;;;;7.00;3.00;;;16.20;1.00;;;;;;6058711;23;20437;-79
2022/09/17 08:55:58;;;;;;;6.37;2.43;;;16.20;1.00;;;;;;6020550;23;20405;-81
2022/09/17 08:59:08;;;;;;;7.10;3.17;;;16.00;1.00;;;;;;6062042;23;20420;-83
2022/09/17 09:01:49;;;;;;;7.20;2.80;;;15.90;1.00;;;;;;6061827;23;20587;-78
2022/09/17 09:04:48;;;;;;;7.30;2.80;;;16.10;1.00;;;;;;6046871;23;20880;-76
2022/09/17 09:07:18;;;;;;;9.17;3.17;;;16.30;1.00;;;;;;6076968;23;20425;-77
2022/09/17 09:09:57;;;;;;;7.43;2.63;;;16.50;1.00;;;;;;6067586;23;20398;-76
2022/09/17 09:12:42;;;;;;;11.50;3.53;;;16.90;1.00;;;;;;6081046;23;20397;-81
2022/09/17 09:15:38;;;;;;;7.40;3.00;;;17.70;1.00;;;;;;6079076;23;20536;-78
2022/09/17 09:18:17;;;;;;;9.20;2.60;;;19.20;1.00;;;;;;6081127;23;20393;-80
2022/09/17 09:20:54;;;;;;;7.80;2.77;;;20.70;1.00;;;;;;6065290;23;20396;-79
2022/09/17 09:23:37;;;;;;;5.50;2.00;;;22.10;1.00;;;;;;6069191;23;20401;-86
2022/09/17 09:26:20;;;;;;;6.77;2.60;;;22.80;1.00;;;;;;6085763;23;20466;-85
2022/09/17 09:29:18;;;;;;;7.80;2.63;;;22.80;1.00;;;;;;6066258;23;21159;-79
2022/09/17 09:32:17;;;;;;;10.40;3.20;;;22.10;1.00;;;;;;6071648;23;20409;-80
2022/09/17 09:34:46;;;;;;;9.97;3.27;;;21.10;1.00;;;;;;6056579;23;20443;-80
2022/09/17 09:37:19;;;;;;;10.50;2.43;;;21.10;1.00;;;;;;6064195;23;20406;-78
2022/09/17 09:39:49;;;;;;;11.23;3.00;;;20.60;1.00;;;;;;6062200;23;20504;-78
2022/09/17 09:42:23;;;;;;;6.43;2.33;;;19.80;1.00;;;;;;6081033;23;20441;-81
2022/09/17 09:44:50;;;;;;;9.73;2.63;;;19.20;1.00;;;;;;6078161;23;20418;-81
2022/09/17 09:47:45;;;;;;;10.57;2.23;;;19.80;1.00;;;;;;6066993;23;20892;-86
2022/09/17 09:50:30;;;;;;;8.83;2.67;;;19.60;1.00;;;;;;6081784;23;20746;-80
2022/09/17 09:53:09;;;;;;;9.07;3.33;;;19.10;1.00;;;;;;6077716;23;20512;-79
2022/09/17 09:56:17;;;;;;;9.60;2.70;;;19.00;1.00;;;;;;6054110;23;20441;-81
2022/09/17 09:58:48;;;;;;;7.60;2.63;;;18.70;1.00;;;;;;6052019;23;20411;-87
2022/09/17 10:01:19;;;;;;;10.37;2.93;;;18.20;1.00;;;;;;6069967;23;20419;-79
2022/09/17 10:04:02;;;;;;;9.00;2.63;;;17.50;1.00;;;;;;6065649;23;20455;-79
2022/09/17 10:06:33;;;;;;;11.27;3.33;;;17.10;1.00;;;;;;6063909;23;20421;-78
2022/09/17 10:09:17;;;;;;;6.93;2.60;;;17.00;1.00;;;;;;6077411;23;20386;-78
2022/09/17 10:12:01;;;;;;;7.20;2.90;;;16.90;1.00;;;;;;6055010;23;20449;-79
2022/09/17 10:14:29;;;;;;;9.33;2.97;;;16.80;1.00;;;;;;6072073;23;20437;-78
2022/09/17 10:17:18;;;;;;;7.20;2.80;;;17.20;1.00;;;;;;6066259;23;20394;-78
2022/09/17 10:20:19;;;;;;;8.73;3.10;;;18.50;1.00;;;;;;6065288;23;20537;-80
2022/09/17 10:22:48;;;;;;;7.03;2.37;;;18.90;1.00;;;;;;6082872;23;20477;-78
2022/09/17 10:25:28;;;;;;;7.90;2.43;;;19.30;1.00;;;;;;6070578;23;20469;-84
2022/09/17 10:27:58;;;;;;;9.10;2.47;;;20.00;1.00;;;;;;6084086;23;20392;-82
2022/09/17 10:30:28;;;;;;;7.33;2.60;;;20.40;1.00;;;;;;6077042;23;20433;-84
2022/09/17 10:33:23;;;;;;;8.27;2.23;;;20.40;1.00;;;;;;6069787;23;20464;-85
2022/09/17 10:36:06;;;;;;;7.90;2.60;;;20.80;1.00;;;;;;6077163;23;20948;-80
2022/09/17 10:38:38;;;;;;;6.80;2.47;;;22.90;1.00;;;;;;6063386;23;20425;-80
2022/09/17 10:41:17;;;;;;;7.47;2.97;;;22.90;1.00;;;;;;6067337;23;20444;-80
2022/09/17 10:44:20;;;;;;;6.40;2.50;;;21.80;1.00;;;;;;6075533;23;20516;-81
2022/09/17 10:46:47;;;;;;;8.73;2.33;;;19.90;1.00;;;;;;6080552;23;20426;-79
2022/09/17 10:52:33;;;;;;;8.57;3.37;;;16.60;1.00;;;;;;6032403;23;21005;-79
2022/09/17 10:55:17;;;;;;;8.13;2.63;;;15.80;1.00;;;;;;6082578;23;20631;-77
2022/09/17 11:01:32;;;;;;;9.30;2.80;;;15.90;1.00;;;;;;5924797;23;20419;-85
2022/09/17 11:07:56;;;;;;;7.37;2.50;;;17.00;1.00;;;;;;5981161;23;20428;-85
2022/09/17 11:11:04;;;;;;;7.50;2.50;;;17.40;1.00;;;;;;5991473;23;20417;-86
2022/09/17 11:13:42;;;;;;;8.00;2.63;;;17.60;1.00;;;;;;6080622;23;20598;-85
2022/09/17 11:16:23;;;;;;;8.73;2.50;;;17.90;1.00;;;;;;6081883;23;20504;-85
2022/09/17 11:19:03;;;;;;;7.57;2.67;;;18.70;1.00;;;;;;6079233;23;20394;-87
2022/09/17 11:21:52;;;;;;;8.80;2.10;;;21.40;1.00;;;;;;6044163;23;20405;-87
2022/09/17 11:24:57;;;;;;;9.07;2.00;;;24.00;1.00;;;;;;6067079;23;20778;-88
2022/09/17 11:27:45;;;;;;;9.23;2.20;;;25.50;1.00;;;;;;6079139;23;20465;-87
2022/09/17 11:30:17;;;;;;;6.80;1.90;;;25.10;1.00;;;;;;6080185;23;20410;-84
2022/09/17 11:33:19;;;;;;;9.77;2.93;;;24.20;1.00;;;;;;6079060;23;20408;-89
2022/09/17 11:35:50;;;;;;;8.50;2.13;;;22.40;1.00;;;;;;6069396;23;21256;-88
2022/09/17 11:38:24;;;;;;;6.20;1.77;;;21.50;1.00;;;;;;6079705;23;20444;-88
2022/09/17 11:41:00;;;;;;;9.17;2.00;;;21.00;1.00;;;;;;6078922;23;20500;-86
2022/09/17 11:43:30;;;;;;;6.93;2.00;;;21.00;1.00;;;;;;6081820;23;20523;-82
2022/09/17 11:46:05;;;;;;;7.27;1.87;;;20.90;1.00;;;;;;6081280;23;20433;-86
2022/09/17 11:48:39;;;;;;;7.43;2.57;;;20.20;1.00;;;;;;6079083;23;20442;-86
2022/09/17 11:51:20;;;;;;;5.13;1.30;;;19.90;1.00;;;;;;6081773;23;20460;-83
2022/09/17 11:53:51;;;;;;;6.63;2.17;;;20.60;1.00;;;;;;6078565;23;23089;-87
2022/09/17 11:56:26;;;;;;;7.27;2.17;;;21.70;1.00;;;;;;6080812;23;20426;-85
2022/09/17 11:59:01;;;;;;;8.83;2.57;;;21.90;1.00;;;;;;6063846;23;20839;-86
2022/09/17 12:01:33;;;;;;;9.17;2.33;;;20.90;1.00;;;;;;6079162;23;20459;-83
2022/09/17 12:04:05;;;;;;;8.30;2.37;;;20.50;1.00;;;;;;6077104;23;20401;-86
2022/09/17 12:06:40;;;;;;;7.53;2.00;;;20.20;1.00;;;;;;6077590;23;20465;-83
2022/09/17 12:09:14;;;;;;;5.50;1.90;;;19.90;1.00;;;;;;6078265;23;20479;-86
2022/09/17 12:11:48;;;;;;;7.57;1.70;;;20.50;1.00;;;;;;6063030;23;20420;-85
2022/09/17 12:14:22;;;;;;;5.70;1.77;;;22.90;1.00;;;;;;6077271;23;20436;-87
2022/09/17 12:16:53;;;;;;;6.40;2.00;;;24.00;1.00;;;;;;6067580;23;20369;-86
2022/09/17 12:19:25;;;;;;;6.70;2.07;;;25.30;1.00;;;;;;6080896;23;20455;-85
2022/09/17 12:21:58;;;;;;;6.40;1.90;;;25.80;1.00;;;;;;6080617;23;20431;-86
2022/09/17 12:24:27;;;;;;;6.10;1.40;;;25.80;1.00;;;;;;6066179;23;20425;-83
2022/09/17 12:27:12;;;;;;;7.53;1.40;;;25.30;1.00;;;;;;6062139;23;20439;-86
2022/09/17 12:30:04;;;;;;;6.67;2.10;;;23.60;1.00;;;;;;6054382;23;20442;-85
2022/09/17 12:32:57;;;;;;;6.10;1.50;;;22.10;1.00;;;;;;6050483;23;21236;-87
2022/09/17 12:35:50;;;;;;;4.87;1.50;;;20.70;1.00;;;;;;6042640;23;20437;-86
2022/09/17 12:38:34;;;;;;;5.93;1.70;;;20.60;1.00;;;;;;6027787;23;21470;-86
2022/09/17 12:41:08;;;;;;;6.73;1.43;;;22.60;1.00;;;;;;6026163;23;20443;-86
2022/09/17 12:44:04;;;;;;;5.63;1.47;;;23.90;1.00;;;;;;6039009;23;20406;-85
2022/09/17 12:46:49;;;;;;;6.70;1.93;;;24.00;1.00;;;;;;6055018;23;20393;-87
2022/09/17 12:49:35;;;;;;;6.30;1.63;;;24.00;1.00;;;;;;6058219;23;20429;-87
2022/09/17 12:52:15;;;;;;;6.20;1.40;;;24.40;1.00;;;;;;6039985;23;20445;-86
2022/09/17 12:55:18;;;;;;;5.90;1.40;;;26.00;1.00;;;;;;6018966;23;20423;-80
2022/09/17 12:57:59;;;;;;;5.77;1.53;;;28.50;1.00;;;;;;6054867;23;20406;-80
2022/09/17 13:00:40;;;;;;;6.80;1.20;;;30.60;1.00;;;;;;6056867;23;20391;-78
2022/09/17 13:03:20;;;;;;;5.80;1.70;;;31.00;1.00;;;;;;6052712;23;20474;-78
2022/09/17 13:06:26;;;;;;;6.27;1.40;;;28.20;1.00;;;;;;6054802;23;20503;-82
2022/09/17 13:09:37;;;;;;;5.90;1.83;;;25.20;1.00;;;;;;6029511;23;20414;-80
2022/09/17 13:12:28;;;;;;;8.20;1.50;;;22.50;1.00;;;;;;6044085;23;20558;-80
2022/09/17 13:15:30;;;;;;;6.23;1.47;;;20.50;1.00;;;;;;6060621;23;20453;-80
2022/09/17 13:18:23;;;;;;;7.70;1.90;;;19.60;1.00;;;;;;6055167;23;20394;-87
2022/09/17 13:21:04;;;;;;;7.10;1.77;;;19.10;1.00;;;;;;6051820;23;20432;-84
2022/09/17 13:23:38;;;;;;;4.97;1.30;;;19.00;1.00;;;;;;6050486;23;20420;-86
2022/09/17 13:26:08;;;;;;;5.80;1.30;;;19.50;1.00;;;;;;6062780;23;20449;-85
2022/09/17 13:28:42;;;;;;;5.63;1.53;;;19.50;1.00;;;;;;6038513;23;20426;-86
2022/09/17 13:31:10;;;;;;;6.73;1.40;;;19.30;1.00;;;;;;6047126;23;20392;-87
2022/09/17 13:34:02;;;;;;;6.90;1.67;;;19.10;1.00;;;;;;6051653;23;20934;-85
2022/09/17 13:36:47;;;;;;;6.87;1.33;;;18.70;1.00;;;;;;6053843;23;20440;-85
2022/09/17 13:39:41;;;;;;;5.70;1.30;;;18.60;1.00;;;;;;6052955;23;20521;-85
2022/09/17 13:42:23;;;;;;;5.93;1.60;;;18.40;1.00;;;;;;6053486;23;20428;-86
2022/09/17 13:45:02;;;;;;;8.03;1.80;;;18.10;1.00;;;;;;6054505;23;20379;-85
2022/09/17 13:47:31;;;;;;;7.20;2.00;;;18.00;1.00;;;;;;6044829;23;20442;-85
2022/09/17 13:50:07;;;;;;;7.13;2.10;;;17.90;1.00;;;;;;6048766;23;20408;-85
2022/09/17 13:52:39;;;;;;;7.60;1.77;;;17.90;1.00;;;;;;6068130;23;20433;-86
2022/09/17 13:55:09;;;;;;;6.53;1.73;;;18.00;1.00;;;;;;6041849;23;20426;-86
2022/09/17 13:57:51;;;;;;;6.07;1.40;;;18.00;1.00;;;;;;6052907;23;20410;-86